GOOY/DKR METAR and TAF weather

Enter ICAO airport designator
Station Type Date Time Source
GOOY METAR 2023/01/29 17:00 UTC NOAA

GOOY 291700Z 36015KT CAVOK 24/14 Q1011


Station Type Date Time Source
GOOY Decoded METAR 2023/01/29 17:00 UTC NOAA

Dakar / Yoff, Senegal (GOOY) 14-44N 017-30W 24M
Jan 29, 2023 - 12:00 PM EST / 2023.01.29 1700 UTC
Wind: from the N (360 degrees) at 17 MPH (15 KT):0
Visibility: greater than 7 mile(s):0
Temperature: 75 F (24 C)
Dew Point: 57 F (14 C)
Relative Humidity: 53%
Pressure (altimeter): 29.85 in. Hg (1011 hPa)
ob: GOOY 291700Z 36015KT CAVOK 24/14 Q1011
cycle: 17

Station Type Date Time Source
GOOY TAF 2023/01/29 18:20 UTC NOAA

TAF GOOY 291700Z 2918/3024 36014KT CAVOK

Example: see airport list